createdAt,value
2018-12-31T00:00:38.746Z,8.97
2018-12-31T00:03:26.276Z,11.10
2018-12-31T00:06:13.836Z,13.57
2018-12-31T00:09:02.358Z,11.37
2018-12-31T00:12:00.240Z,12.60
2018-12-31T00:14:47.938Z,13.80
2018-12-31T00:17:39.147Z,8.30
2018-12-31T00:20:26.638Z,12.30
2018-12-31T00:23:14.432Z,12.27
2018-12-31T00:26:03.933Z,10.57
2018-12-31T00:28:51.355Z,11.83
2018-12-31T00:31:38.750Z,13.05
2018-12-31T00:34:26.177Z,10.53
2018-12-31T00:37:13.707Z,11.83
2018-12-31T00:40:02.493Z,12.27
2018-12-31T00:42:48.982Z,10.07
2018-12-31T00:45:37.889Z,14.10
2018-12-31T00:48:26.232Z,9.10
2018-12-31T00:51:13.918Z,10.37
2018-12-31T00:54:00.978Z,10.60
2018-12-31T00:56:48.180Z,10.83
2018-12-31T00:59:35.494Z,8.57
2018-12-31T01:02:22.859Z,8.57
2018-12-31T01:05:10.384Z,11.33
2018-12-31T01:07:58.630Z,9.87
2018-12-31T01:10:46.044Z,10.43
2018-12-31T01:13:33.488Z,10.40
2018-12-31T01:16:26.496Z,8.47
2018-12-31T01:19:13.979Z,11.37
2018-12-31T01:22:09.640Z,13.67
2018-12-31T01:24:56.589Z,9.60
2018-12-31T01:27:43.651Z,11.60
2018-12-31T01:30:30.620Z,9.27
2018-12-31T01:33:30.753Z,9.93
2018-12-31T01:36:36.386Z,14.33
2018-12-31T01:39:40.225Z,10.03
2018-12-31T01:42:30.123Z,12.80
2018-12-31T01:45:17.268Z,11.97
2018-12-31T01:48:04.601Z,16.07
2018-12-31T01:50:52.121Z,12.10
2018-12-31T01:53:39.557Z,11.67
2018-12-31T01:56:26.850Z,10.50
2018-12-31T01:59:16.659Z,10.57
2018-12-31T02:02:06.609Z,12.10
2018-12-31T02:05:00.679Z,14.03
2018-12-31T02:07:54.065Z,14.20
2018-12-31T02:10:50.579Z,13.23
2018-12-31T02:13:41.298Z,10.13
2018-12-31T02:16:28.639Z,12.95
2018-12-31T02:19:17.687Z,10.73
2018-12-31T02:22:06.885Z,14.77
2018-12-31T02:24:57.045Z,14.30
2018-12-31T02:27:45.600Z,13.50
2018-12-31T02:30:34.707Z,15.87
2018-12-31T02:33:22.909Z,16.55
2018-12-31T02:36:24.138Z,15.73
2018-12-31T02:39:12.845Z,17.17
2018-12-31T02:42:00.396Z,16.57
2018-12-31T02:44:47.387Z,12.93
2018-12-31T02:47:36.910Z,13.40
2018-12-31T02:50:29.308Z,14.70
2018-12-31T02:53:17.775Z,14.93
2018-12-31T02:56:07.001Z,12.43
2018-12-31T02:58:58.594Z,14.60
2018-12-31T03:01:50.388Z,11.43
2018-12-31T03:04:39.623Z,13.13
2018-12-31T03:07:29.872Z,16.15
2018-12-31T03:10:19.240Z,12.83
2018-12-31T03:13:07.169Z,14.33
2018-12-31T03:15:54.413Z,14.27
2018-12-31T03:18:41.514Z,16.30
2018-12-31T03:24:02.675Z,15.25
2018-12-31T03:26:51.845Z,15.73
2018-12-31T03:29:39.638Z,14.33
2018-12-31T03:32:26.618Z,16.23
2018-12-31T03:35:15.116Z,12.37
2018-12-31T03:38:02.662Z,16.10
2018-12-31T03:40:50.345Z,13.67
2018-12-31T03:43:37.933Z,15.23
2018-12-31T03:46:25.835Z,14.13
2018-12-31T03:49:13.049Z,16.17
2018-12-31T03:55:08.404Z,13.00
2018-12-31T03:57:55.817Z,10.93
2018-12-31T04:00:43.092Z,13.50
2018-12-31T04:03:30.455Z,17.97
2018-12-31T04:06:18.049Z,11.70
2018-12-31T04:09:05.572Z,16.37
2018-12-31T04:11:53.139Z,14.20
2018-12-31T04:14:40.488Z,15.10
2018-12-31T04:17:28.895Z,15.87
2018-12-31T04:20:16.801Z,13.73
2018-12-31T04:23:04.420Z,14.60
2018-12-31T04:25:51.782Z,16.70
2018-12-31T04:28:39.489Z,14.03
2018-12-31T04:31:26.837Z,15.00
2018-12-31T04:34:13.924Z,13.00
2018-12-31T04:37:01.199Z,16.60
2018-12-31T04:39:48.877Z,14.97
2018-12-31T04:42:35.868Z,14.33
2018-12-31T04:48:32.717Z,17.57
2018-12-31T04:51:20.027Z,14.30
2018-12-31T04:54:07.186Z,18.10
2018-12-31T04:56:56.110Z,16.87
2018-12-31T04:59:43.095Z,18.73
2018-12-31T05:02:30.541Z,21.87
2018-12-31T05:05:17.894Z,19.57
2018-12-31T05:08:05.278Z,16.63
2018-12-31T05:10:52.433Z,19.40
2018-12-31T05:13:39.670Z,14.77
2018-12-31T05:16:26.870Z,12.00
2018-12-31T05:19:14.089Z,12.27
2018-12-31T05:22:01.187Z,15.40
2018-12-31T05:24:48.662Z,14.87
2018-12-31T05:27:36.192Z,11.20
2018-12-31T05:30:23.575Z,12.00
2018-12-31T05:33:11.299Z,8.97
2018-12-31T05:35:58.599Z,8.97
2018-12-31T05:38:46.655Z,11.00
2018-12-31T05:41:34.176Z,11.70
2018-12-31T05:44:21.699Z,8.77
2018-12-31T05:47:09.334Z,12.60
2018-12-31T05:49:56.513Z,8.07
2018-12-31T05:52:43.737Z,9.13
2018-12-31T05:55:31.185Z,7.93
2018-12-31T05:58:18.804Z,11.93
2018-12-31T06:01:06.223Z,6.10
2018-12-31T06:03:53.318Z,8.50
2018-12-31T06:06:40.787Z,8.50
2018-12-31T06:09:27.966Z,10.00
2018-12-31T06:12:15.590Z,10.90
2018-12-31T06:15:03.033Z,10.27
2018-12-31T06:17:50.631Z,5.30
2018-12-31T06:20:38.095Z,10.87
2018-12-31T06:23:25.565Z,10.63
2018-12-31T06:26:14.270Z,9.43
2018-12-31T06:29:01.705Z,6.13
2018-12-31T06:34:56.626Z,8.50
2018-12-31T06:37:44.119Z,5.73
2018-12-31T06:40:31.921Z,4.63
2018-12-31T06:43:19.066Z,6.17
2018-12-31T06:46:22.032Z,9.20
2018-12-31T06:49:09.386Z,4.97
2018-12-31T06:51:56.791Z,8.70
2018-12-31T06:54:44.152Z,8.77
2018-12-31T06:57:31.329Z,8.50
2018-12-31T07:00:18.715Z,5.60
2018-12-31T07:03:06.236Z,8.47
2018-12-31T07:05:53.789Z,6.60
2018-12-31T07:08:41.081Z,6.07
2018-12-31T07:11:28.546Z,7.95
2018-12-31T07:14:16.072Z,6.70
2018-12-31T07:17:03.267Z,4.97
2018-12-31T07:19:50.405Z,6.27
2018-12-31T07:22:38.034Z,8.00
2018-12-31T07:25:25.677Z,6.17
2018-12-31T07:28:12.828Z,11.50
2018-12-31T07:30:59.961Z,9.35
2018-12-31T07:33:47.119Z,11.15
2018-12-31T07:36:35.369Z,11.57
2018-12-31T07:39:24.206Z,11.95
2018-12-31T07:42:13.893Z,10.37
2018-12-31T07:45:01.107Z,12.13
2018-12-31T07:47:48.533Z,13.90
2018-12-31T07:50:38.879Z,9.83
2018-12-31T07:53:26.042Z,13.33
2018-12-31T07:56:13.401Z,11.00
2018-12-31T07:59:00.739Z,12.90
2018-12-31T08:01:47.949Z,14.37
2018-12-31T08:04:35.317Z,14.00
2018-12-31T08:07:23.664Z,12.23
2018-12-31T08:10:11.063Z,12.43
2018-12-31T08:12:58.203Z,12.30
2018-12-31T08:15:45.256Z,11.50
2018-12-31T08:18:32.984Z,11.43
2018-12-31T08:21:20.299Z,12.93
2018-12-31T08:24:07.788Z,12.00
2018-12-31T08:26:54.966Z,15.00
2018-12-31T08:29:42.395Z,15.30
2018-12-31T08:32:29.514Z,10.70
2018-12-31T08:35:16.531Z,12.63
2018-12-31T08:38:03.816Z,13.30
2018-12-31T08:40:50.898Z,12.20
2018-12-31T08:43:40.841Z,14.23
2018-12-31T08:46:28.054Z,12.07
2018-12-31T08:49:15.425Z,12.60
2018-12-31T08:52:02.823Z,13.00
2018-12-31T08:54:50.435Z,12.37
2018-12-31T08:57:38.874Z,11.83
2018-12-31T09:00:28.104Z,13.93
2018-12-31T09:03:16.074Z,11.97
2018-12-31T09:06:04.461Z,13.23
2018-12-31T09:08:51.987Z,13.57
2018-12-31T09:11:39.567Z,13.03
2018-12-31T09:14:27.080Z,12.00
2018-12-31T09:17:15.212Z,13.20
2018-12-31T09:23:14.713Z,15.00
2018-12-31T09:29:09.574Z,11.37
2018-12-31T09:31:56.983Z,16.55
2018-12-31T09:34:44.634Z,14.80
2018-12-31T09:37:32.095Z,12.77
2018-12-31T09:40:24.819Z,11.70
2018-12-31T09:43:12.387Z,14.43
2018-12-31T09:45:59.839Z,13.47
2018-12-31T09:48:47.357Z,17.03
2018-12-31T09:51:34.652Z,17.73
2018-12-31T09:54:21.911Z,15.77
2018-12-31T09:57:09.598Z,17.30
2018-12-31T10:03:02.759Z,21.70
2018-12-31T10:05:50.328Z,21.17
2018-12-31T10:08:37.657Z,22.33
2018-12-31T10:11:24.894Z,26.13
2018-12-31T10:14:12.344Z,30.67
2018-12-31T10:16:59.533Z,29.33
2018-12-31T10:19:47.065Z,32.40
2018-12-31T10:22:34.094Z,30.47
2018-12-31T10:25:30.055Z,31.10
2018-12-31T10:28:17.409Z,33.10
2018-12-31T10:31:04.593Z,34.40
2018-12-31T10:33:51.727Z,36.87
2018-12-31T10:36:39.174Z,36.70
2018-12-31T10:39:26.291Z,37.40
2018-12-31T10:42:13.986Z,33.47
2018-12-31T10:45:01.506Z,40.70
2018-12-31T10:47:49.191Z,45.80
2018-12-31T10:50:36.531Z,41.10
2018-12-31T10:53:24.040Z,33.57
2018-12-31T10:56:13.268Z,32.10
2018-12-31T10:59:00.446Z,32.83
2018-12-31T11:01:55.404Z,29.57
2018-12-31T11:04:48.173Z,30.33
2018-12-31T11:07:36.308Z,29.30
2018-12-31T11:10:24.553Z,34.53
2018-12-31T11:16:19.576Z,27.50
2018-12-31T11:19:08.155Z,25.50
2018-12-31T11:21:55.677Z,24.43
2018-12-31T11:24:42.953Z,28.87
2018-12-31T11:27:31.724Z,32.93
2018-12-31T11:30:22.044Z,25.93
2018-12-31T11:33:09.690Z,30.33
2018-12-31T11:39:04.241Z,24.40
2018-12-31T11:41:54.130Z,22.67
2018-12-31T11:44:41.607Z,20.17
2018-12-31T11:47:30.690Z,14.75
2018-12-31T11:50:18.150Z,19.80
2018-12-31T11:53:05.292Z,19.17
2018-12-31T11:56:06.234Z,20.57
2018-12-31T11:58:54.778Z,23.67
2018-12-31T12:01:42.207Z,20.92
2018-12-31T12:04:30.201Z,18.87
2018-12-31T12:07:17.690Z,21.00
2018-12-31T12:10:07.308Z,21.40
2018-12-31T12:12:52.224Z,20.20
2018-12-31T12:15:41.617Z,21.37
2018-12-31T12:18:30.574Z,17.67
2018-12-31T12:21:19.622Z,19.67
2018-12-31T12:24:07.488Z,18.90
2018-12-31T12:26:55.122Z,18.73
2018-12-31T12:29:44.055Z,19.17
2018-12-31T12:32:31.463Z,19.87
2018-12-31T12:35:18.913Z,18.63
2018-12-31T12:38:06.246Z,18.80
2018-12-31T12:41:01.605Z,21.50
2018-12-31T12:43:49.152Z,17.90
2018-12-31T12:46:37.395Z,17.33
2018-12-31T12:49:32.574Z,17.50
2018-12-31T12:52:20.325Z,19.43
2018-12-31T12:55:07.567Z,18.20
2018-12-31T12:57:55.273Z,20.37
2018-12-31T13:00:42.673Z,17.80
2018-12-31T13:03:29.995Z,26.95
2018-12-31T13:06:17.450Z,16.53
2018-12-31T13:09:09.474Z,17.27
2018-12-31T13:11:58.546Z,18.00
2018-12-31T13:14:46.073Z,17.02
2018-12-31T13:17:34.928Z,17.58
2018-12-31T13:23:31.578Z,14.63
2018-12-31T13:26:19.466Z,18.10
2018-12-31T13:29:06.968Z,19.50
2018-12-31T13:31:54.418Z,19.65
2018-12-31T13:34:41.989Z,17.60
2018-12-31T13:37:31.610Z,14.57
2018-12-31T13:40:19.843Z,17.80
2018-12-31T13:46:14.357Z,17.53
2018-12-31T13:49:02.865Z,20.83
2018-12-31T13:51:50.378Z,18.30
2018-12-31T13:54:38.042Z,20.37
2018-12-31T14:00:32.220Z,21.50
2018-12-31T14:03:20.587Z,21.30
2018-12-31T14:12:21.306Z,33.43
2018-12-31T14:15:12.754Z,27.03
2018-12-31T14:18:02.566Z,23.90
2018-12-31T14:20:52.345Z,23.80
2018-12-31T14:23:39.783Z,24.90
2018-12-31T14:26:31.134Z,24.73
2018-12-31T14:29:19.327Z,24.17
2018-12-31T14:32:07.178Z,27.00
2018-12-31T14:34:56.698Z,30.57
2018-12-31T14:37:43.921Z,22.53
2018-12-31T14:40:33.179Z,22.70
2018-12-31T14:43:23.763Z,20.33
2018-12-31T14:46:14.974Z,17.13
2018-12-31T14:49:05.329Z,21.90
2018-12-31T14:55:05.595Z,18.83
2018-12-31T14:57:55.883Z,20.47
2018-12-31T15:00:44.205Z,21.13
2018-12-31T15:03:38.890Z,17.47
2018-12-31T15:06:30.326Z,15.20
2018-12-31T15:09:17.696Z,11.73
2018-12-31T15:12:16.836Z,12.70
2018-12-31T15:15:04.903Z,14.20
2018-12-31T15:18:02.265Z,11.77
2018-12-31T15:20:53.780Z,11.87
2018-12-31T15:23:41.316Z,12.33
2018-12-31T15:26:29.683Z,13.27
2018-12-31T15:29:17.250Z,13.67
2018-12-31T15:32:05.576Z,13.83
2018-12-31T15:34:53.105Z,14.03
2018-12-31T15:37:40.889Z,15.13
2018-12-31T15:43:34.769Z,17.53
2018-12-31T15:46:24.036Z,14.53
2018-12-31T15:49:12.016Z,17.47
2018-12-31T15:51:59.513Z,20.10
2018-12-31T15:54:51.616Z,17.23
2018-12-31T15:57:38.907Z,20.73
2018-12-31T16:00:25.846Z,23.20
2018-12-31T16:03:13.671Z,26.40
2018-12-31T16:06:01.367Z,29.60
2018-12-31T16:08:54.930Z,23.47
2018-12-31T16:11:42.355Z,22.60
2018-12-31T16:14:29.801Z,21.77
2018-12-31T16:17:18.904Z,14.20
2018-12-31T16:20:06.571Z,13.90
2018-12-31T16:22:54.040Z,14.23
2018-12-31T16:25:42.485Z,19.17
2018-12-31T16:28:30.349Z,13.60
2018-12-31T16:31:18.049Z,14.33
2018-12-31T16:34:12.950Z,12.57
2018-12-31T16:37:01.349Z,10.90
2018-12-31T16:39:48.658Z,10.13
2018-12-31T16:42:35.813Z,11.90
2018-12-31T16:45:40.839Z,14.00
2018-12-31T16:48:28.164Z,14.07
2018-12-31T16:51:16.075Z,14.20
2018-12-31T16:54:05.671Z,12.80
2018-12-31T16:56:52.603Z,17.73
2018-12-31T16:59:39.842Z,25.35
2018-12-31T17:02:28.145Z,24.45
2018-12-31T17:05:15.627Z,16.70
2018-12-31T17:08:02.870Z,25.03
2018-12-31T17:10:50.682Z,18.03
2018-12-31T17:13:38.382Z,19.67
2018-12-31T17:16:25.497Z,17.00
2018-12-31T17:19:13.293Z,17.40
2018-12-31T17:22:01.632Z,22.97
2018-12-31T17:24:51.310Z,20.83
2018-12-31T17:27:39.153Z,27.53
2018-12-31T17:30:28.773Z,27.33
2018-12-31T17:33:17.273Z,29.03
2018-12-31T17:39:11.338Z,29.53
2018-12-31T17:41:58.847Z,40.50
2018-12-31T17:44:46.272Z,41.70
2018-12-31T17:47:33.566Z,22.90
2018-12-31T17:50:21.372Z,20.60
2018-12-31T17:53:27.274Z,12.60
2018-12-31T17:56:15.501Z,12.57
2018-12-31T17:59:02.683Z,10.47
2018-12-31T18:01:50.461Z,10.53
2018-12-31T18:04:37.903Z,14.02
2018-12-31T18:07:25.705Z,11.73
2018-12-31T18:10:13.652Z,10.40
2018-12-31T18:13:01.049Z,17.65
2018-12-31T18:15:49.222Z,19.83
2018-12-31T18:18:36.592Z,21.55
2018-12-31T18:21:26.837Z,14.33
2018-12-31T18:24:15.387Z,18.27
2018-12-31T18:27:03.424Z,20.75
2018-12-31T18:29:50.947Z,18.40
2018-12-31T18:32:38.346Z,20.40
2018-12-31T18:35:25.545Z,19.40
2018-12-31T18:38:12.972Z,13.60
2018-12-31T18:41:00.521Z,17.73
2018-12-31T18:43:48.861Z,15.67
2018-12-31T18:46:37.383Z,20.97
2018-12-31T18:49:24.915Z,25.90
2018-12-31T18:52:12.068Z,26.70
2018-12-31T18:55:01.821Z,23.60
2018-12-31T18:57:49.373Z,23.37
2018-12-31T19:00:36.795Z,27.87
2018-12-31T19:03:24.861Z,30.47
2018-12-31T19:06:12.553Z,29.47
2018-12-31T19:09:00.046Z,50.08
2018-12-31T19:14:53.534Z,47.00
2018-12-31T19:20:49.449Z,66.97
2018-12-31T19:23:37.693Z,52.80
2018-12-31T19:26:28.806Z,40.47
2018-12-31T19:32:22.433Z,30.87
2018-12-31T19:35:10.819Z,45.47
2018-12-31T19:37:58.986Z,56.80
2018-12-31T19:40:48.771Z,45.07
2018-12-31T19:43:37.144Z,48.63
2018-12-31T19:46:24.348Z,119.00
2018-12-31T19:49:13.638Z,106.63
2018-12-31T19:52:00.977Z,67.90
2018-12-31T19:54:48.456Z,43.47
2018-12-31T19:57:36.167Z,32.97
2018-12-31T20:03:32.636Z,33.50
2018-12-31T20:06:20.514Z,42.00
2018-12-31T20:09:08.433Z,47.43
2018-12-31T20:11:56.444Z,45.83
2018-12-31T20:14:44.915Z,48.23
2018-12-31T20:17:32.208Z,61.30
2018-12-31T20:20:19.937Z,56.90
2018-12-31T20:23:06.995Z,42.43
2018-12-31T20:25:54.296Z,48.78
2018-12-31T20:28:41.817Z,36.00
2018-12-31T20:31:29.142Z,35.67
2018-12-31T20:34:17.587Z,35.73
2018-12-31T20:37:04.746Z,34.47
2018-12-31T20:39:52.129Z,30.83
2018-12-31T20:42:39.340Z,28.30
2018-12-31T20:45:27.682Z,30.07
2018-12-31T20:48:15.282Z,30.33
2018-12-31T20:51:02.411Z,40.70
2018-12-31T20:53:49.844Z,41.70
2018-12-31T20:56:37.258Z,45.35
2018-12-31T20:59:24.710Z,36.97
2018-12-31T21:02:12.031Z,35.27
2018-12-31T21:04:59.884Z,38.10
2018-12-31T21:07:47.558Z,40.80
2018-12-31T21:10:34.837Z,35.83
2018-12-31T21:13:21.687Z,46.00
2018-12-31T21:16:09.788Z,43.08
2018-12-31T21:18:57.926Z,33.63
2018-12-31T21:21:45.409Z,33.43
2018-12-31T21:24:38.281Z,28.70
2018-12-31T21:27:41.341Z,31.63
2018-12-31T21:30:28.533Z,30.27
2018-12-31T21:33:15.955Z,31.50
2018-12-31T21:36:03.279Z,32.63
2018-12-31T21:38:50.906Z,34.40
2018-12-31T21:41:38.223Z,34.27
2018-12-31T21:44:25.457Z,39.37
2018-12-31T21:47:13.059Z,44.55
2018-12-31T21:50:00.583Z,37.93
2018-12-31T21:52:49.098Z,40.70
2018-12-31T21:55:36.886Z,37.37
2018-12-31T21:58:24.257Z,38.67
2018-12-31T22:01:11.525Z,40.90
2018-12-31T22:03:58.989Z,41.60
2018-12-31T22:06:53.997Z,41.27
2018-12-31T22:09:41.581Z,40.83
2018-12-31T22:12:28.889Z,48.53
2018-12-31T22:15:16.221Z,114.00
2018-12-31T22:18:03.838Z,106.00
2018-12-31T22:20:51.078Z,64.27
2018-12-31T22:23:38.477Z,62.80
2018-12-31T22:26:25.999Z,56.33
2018-12-31T22:29:13.219Z,47.50
2018-12-31T22:32:00.742Z,49.63
2018-12-31T22:34:48.369Z,45.97
2018-12-31T22:37:35.674Z,39.57
2018-12-31T22:40:23.845Z,58.67
2018-12-31T22:43:11.190Z,59.03
2018-12-31T22:45:58.377Z,60.00
2018-12-31T22:48:45.745Z,36.97
2018-12-31T22:51:34.485Z,33.07
2018-12-31T22:54:24.250Z,26.27
2018-12-31T22:57:11.619Z,25.73
2018-12-31T23:00:00.152Z,20.57
2018-12-31T23:02:47.595Z,20.87
2018-12-31T23:05:35.132Z,18.37
2018-12-31T23:11:29.781Z,138.47
2018-12-31T23:14:18.026Z,142.10
2018-12-31T23:17:05.719Z,189.20
2018-12-31T23:19:53.185Z,105.33
2018-12-31T23:22:40.537Z,103.33
2018-12-31T23:25:27.561Z,245.03
2018-12-31T23:28:14.730Z,130.50
2018-12-31T23:31:02.002Z,89.40
2018-12-31T23:33:49.078Z,138.17
2018-12-31T23:36:36.237Z,86.50
2018-12-31T23:39:23.743Z,59.33
2018-12-31T23:42:19.214Z,55.63
2018-12-31T23:45:06.180Z,51.37
2018-12-31T23:47:53.950Z,56.57
2018-12-31T23:50:41.339Z,64.40
2018-12-31T23:53:44.254Z,70.60
2018-12-31T23:56:31.730Z,81.57
